createdAt,value
2023-05-19T00:01:20.733Z,15.58
2023-05-19T00:05:33.823Z,15.52
2023-05-19T00:09:47.031Z,15.48
2023-05-19T00:14:01.081Z,15.32
2023-05-19T00:18:14.370Z,15.36
2023-05-19T00:22:26.904Z,15.36
2023-05-19T00:26:39.370Z,15.23
2023-05-19T00:30:52.541Z,15.16
2023-05-19T00:35:05.302Z,15.20
2023-05-19T00:39:17.626Z,15.28
2023-05-19T00:43:34.669Z,15.30
2023-05-19T00:47:47.186Z,15.44
2023-05-19T00:52:01.842Z,15.40
2023-05-19T00:56:15.957Z,15.34
2023-05-19T01:00:28.606Z,15.26
2023-05-19T01:04:42.129Z,15.51
2023-05-19T01:08:54.824Z,15.43
2023-05-19T01:13:08.370Z,15.23
2023-05-19T01:17:27.501Z,14.95
2023-05-19T01:22:07.850Z,14.77
2023-05-19T01:26:35.327Z,14.72
2023-05-19T01:30:54.854Z,14.53
2023-05-19T01:35:09.729Z,14.77
2023-05-19T01:39:23.490Z,14.34
2023-05-19T01:43:36.500Z,14.30
2023-05-19T01:47:53.789Z,14.33
2023-05-19T01:52:07.492Z,14.28
2023-05-19T01:56:33.452Z,14.15
2023-05-19T02:00:54.399Z,14.14
2023-05-19T02:05:38.091Z,14.28
2023-05-19T02:10:06.464Z,14.23
2023-05-19T02:14:25.919Z,14.21
2023-05-19T02:18:38.330Z,14.06
2023-05-19T02:22:52.545Z,13.91
2023-05-19T02:27:05.303Z,13.89
2023-05-19T02:31:17.781Z,13.83
2023-05-19T02:35:30.294Z,13.73
2023-05-19T02:39:43.212Z,13.91
2023-05-19T02:43:56.053Z,13.70
2023-05-19T02:48:08.739Z,13.64
2023-05-19T02:52:21.440Z,13.48
2023-05-19T02:56:34.017Z,13.38
2023-05-19T03:00:46.526Z,13.54
2023-05-19T03:04:58.891Z,13.75
2023-05-19T03:09:13.465Z,14.06
2023-05-19T03:13:26.021Z,13.85
2023-05-19T03:17:39.659Z,13.83
2023-05-19T03:21:55.847Z,13.91
2023-05-19T03:26:08.350Z,13.87
2023-05-19T03:30:21.033Z,13.89
2023-05-19T03:34:45.272Z,13.90
2023-05-19T03:38:59.029Z,14.02
2023-05-19T03:43:11.680Z,14.11
2023-05-19T03:47:32.537Z,14.12
2023-05-19T03:51:53.401Z,13.96
2023-05-19T03:56:18.415Z,13.84
2023-05-19T04:00:31.246Z,13.99
2023-05-19T04:04:43.759Z,14.15
2023-05-19T04:08:57.330Z,14.20
2023-05-19T04:13:09.976Z,14.28
2023-05-19T04:17:26.617Z,14.51
2023-05-19T04:21:40.251Z,14.64
2023-05-19T04:25:54.467Z,14.74
2023-05-19T04:30:07.615Z,15.21
2023-05-19T04:34:20.909Z,17.38
2023-05-19T04:38:33.767Z,20.04
2023-05-19T04:42:47.081Z,21.16
2023-05-19T04:47:00.489Z,21.95
2023-05-19T04:51:14.651Z,22.23
2023-05-19T04:55:27.412Z,22.63
2023-05-19T04:59:42.455Z,22.49
2023-05-19T05:03:59.210Z,20.27
2023-05-19T05:08:12.404Z,20.81
2023-05-19T05:12:28.422Z,21.79
2023-05-19T05:16:41.259Z,22.26
2023-05-19T05:21:00.202Z,22.50
2023-05-19T05:25:13.779Z,22.89
2023-05-19T05:29:26.526Z,21.56
2023-05-19T05:33:39.865Z,22.61
2023-05-19T05:37:53.383Z,23.12
2023-05-19T05:42:06.152Z,23.51
2023-05-19T05:46:18.874Z,23.79
2023-05-19T05:50:31.916Z,23.55
2023-05-19T05:54:44.797Z,22.81
2023-05-19T05:58:58.045Z,22.61
2023-05-19T06:03:12.371Z,22.83
2023-05-19T06:07:24.926Z,22.16
2023-05-19T06:11:37.832Z,21.66
2023-05-19T06:15:52.675Z,21.86
2023-05-19T06:20:10.928Z,22.64
2023-05-19T06:24:23.538Z,23.19
2023-05-19T06:28:36.133Z,23.36
2023-05-19T06:32:48.763Z,23.29
2023-05-19T06:37:02.701Z,23.27
2023-05-19T06:41:16.877Z,22.51
2023-05-19T06:45:29.585Z,22.66
2023-05-19T06:49:43.439Z,23.28
2023-05-19T06:53:55.909Z,23.93
2023-05-19T06:58:09.332Z,23.89
2023-05-19T07:02:21.828Z,23.47
2023-05-19T07:06:35.286Z,23.61
2023-05-19T07:10:48.269Z,24.19
2023-05-19T07:15:02.541Z,24.09
2023-05-19T07:19:15.377Z,24.33
2023-05-19T07:23:29.997Z,24.72
2023-05-19T07:27:42.390Z,23.42
2023-05-19T07:31:58.212Z,23.40
2023-05-19T07:36:10.798Z,24.26
2023-05-19T07:40:23.257Z,24.43
2023-05-19T07:44:35.678Z,23.41
2023-05-19T07:48:48.349Z,23.36
2023-05-19T07:53:00.720Z,24.17
2023-05-19T07:57:14.799Z,23.91
2023-05-19T08:01:27.331Z,24.48
2023-05-19T08:05:39.745Z,24.07
2023-05-19T08:09:52.246Z,24.35
2023-05-19T08:14:04.701Z,24.66
2023-05-19T08:18:17.054Z,24.78
2023-05-19T08:22:29.429Z,24.31
2023-05-19T08:26:42.079Z,24.15
2023-05-19T08:30:54.604Z,24.18
2023-05-19T08:35:07.926Z,24.63
2023-05-19T08:39:24.548Z,24.69
2023-05-19T08:43:37.399Z,24.50
2023-05-19T08:47:51.789Z,24.63
2023-05-19T08:52:36.073Z,25.13
2023-05-19T08:56:49.207Z,24.09
2023-05-19T09:01:04.507Z,25.17
2023-05-19T09:05:20.977Z,25.27
2023-05-19T09:09:33.483Z,25.36
2023-05-19T09:13:46.358Z,24.71
2023-05-19T09:18:17.687Z,24.35
2023-05-19T09:22:30.950Z,24.74
2023-05-19T09:26:43.820Z,25.30
2023-05-19T09:31:02.458Z,25.11
2023-05-19T09:35:17.524Z,25.04
2023-05-19T09:39:30.758Z,25.14
2023-05-19T09:43:43.182Z,25.32
2023-05-19T09:47:55.575Z,25.23
2023-05-19T09:52:10.066Z,25.55
2023-05-19T09:56:26.402Z,25.96
2023-05-19T10:00:39.695Z,25.39
2023-05-19T10:04:53.832Z,25.54
2023-05-19T10:09:06.748Z,25.63
2023-05-19T10:13:20.237Z,25.57
2023-05-19T10:17:34.696Z,24.38
2023-05-19T10:21:47.485Z,25.26
2023-05-19T10:26:02.296Z,25.82
2023-05-19T10:30:19.382Z,26.14
2023-05-19T10:34:59.491Z,26.41
2023-05-19T10:39:25.402Z,26.44
2023-05-19T10:44:22.305Z,26.23
2023-05-19T10:48:36.914Z,25.88
2023-05-19T10:52:58.642Z,26.85
2023-05-19T10:57:17.897Z,26.62
2023-05-19T11:01:33.549Z,27.18
2023-05-19T11:05:46.764Z,27.39
2023-05-19T11:09:59.136Z,27.89
2023-05-19T11:14:14.974Z,27.31
2023-05-19T11:18:27.415Z,26.84
2023-05-19T11:22:40.678Z,27.06
2023-05-19T11:26:55.310Z,27.27
2023-05-19T11:31:10.555Z,27.88
2023-05-19T11:35:24.649Z,27.83
2023-05-19T11:39:37.502Z,27.82
2023-05-19T11:43:50.002Z,26.93
2023-05-19T11:48:07.191Z,27.86
2023-05-19T11:52:23.303Z,27.22
2023-05-19T11:56:41.016Z,26.83
2023-05-19T12:00:54.517Z,27.45
2023-05-19T12:05:07.264Z,26.55
2023-05-19T12:09:22.716Z,27.32
2023-05-19T12:13:36.116Z,28.52
2023-05-19T12:17:56.942Z,28.65
2023-05-19T12:22:10.181Z,29.26
2023-05-19T12:26:23.028Z,27.95
2023-05-19T12:30:35.779Z,27.92
2023-05-19T12:34:48.482Z,27.57
2023-05-19T12:39:01.027Z,27.32
2023-05-19T12:43:23.441Z,27.06
2023-05-19T12:47:36.738Z,25.81
2023-05-19T12:51:53.777Z,25.89
2023-05-19T12:56:16.742Z,25.84
2023-05-19T13:00:31.318Z,26.57
2023-05-19T13:04:44.858Z,26.79
2023-05-19T13:08:57.484Z,26.64
2023-05-19T13:13:10.629Z,26.71
2023-05-19T13:17:24.121Z,27.46
2023-05-19T13:21:38.232Z,27.03
2023-05-19T13:25:51.783Z,26.67
2023-05-19T13:30:05.659Z,26.99
2023-05-19T13:34:20.271Z,27.21
2023-05-19T13:38:32.677Z,27.44
2023-05-19T13:42:45.718Z,27.20
2023-05-19T13:46:58.198Z,27.11
2023-05-19T13:51:10.710Z,27.22
2023-05-19T13:55:23.940Z,27.60
2023-05-19T13:59:45.711Z,26.72
2023-05-19T14:04:05.663Z,26.68
2023-05-19T14:08:19.213Z,26.26
2023-05-19T14:12:41.504Z,26.26
2023-05-19T14:16:59.843Z,26.33
2023-05-19T14:21:12.505Z,26.55
2023-05-19T14:25:24.917Z,26.37
2023-05-19T14:29:37.347Z,26.08
2023-05-19T14:33:49.842Z,26.62
2023-05-19T14:38:02.322Z,26.53
2023-05-19T14:42:15.007Z,26.69
2023-05-19T14:46:27.500Z,26.18
2023-05-19T14:50:39.981Z,26.35
2023-05-19T14:54:52.488Z,26.46
2023-05-19T14:59:05.191Z,26.31
2023-05-19T15:03:17.685Z,26.46
2023-05-19T15:07:30.219Z,26.28
2023-05-19T15:11:42.630Z,25.81
2023-05-19T15:16:08.445Z,25.89
2023-05-19T15:20:29.579Z,25.84
2023-05-19T15:24:42.178Z,25.68
2023-05-19T15:28:54.777Z,25.33
2023-05-19T15:33:07.402Z,24.47
2023-05-19T15:37:19.914Z,24.69
2023-05-19T15:41:32.376Z,24.94
2023-05-19T15:45:45.171Z,24.86
2023-05-19T15:49:57.697Z,24.64
2023-05-19T15:54:10.525Z,24.41
2023-05-19T15:58:22.987Z,24.44
2023-05-19T16:02:36.278Z,24.48
2023-05-19T16:06:48.792Z,24.38
2023-05-19T16:11:01.370Z,24.31
2023-05-19T16:15:13.786Z,23.72
2023-05-19T16:19:27.145Z,23.37
2023-05-19T16:23:39.718Z,23.28
2023-05-19T16:27:52.936Z,23.13
2023-05-19T16:32:05.920Z,22.78
2023-05-19T16:36:18.604Z,22.43
2023-05-19T16:40:31.235Z,22.28
2023-05-19T16:44:43.824Z,22.13
2023-05-19T16:48:56.461Z,22.08
2023-05-19T16:53:09.084Z,21.90
2023-05-19T16:57:21.636Z,21.92
2023-05-19T17:01:34.308Z,21.79
2023-05-19T17:05:46.875Z,21.70
2023-05-19T17:09:59.614Z,21.64
2023-05-19T17:14:12.282Z,21.52
2023-05-19T17:18:24.866Z,21.41
2023-05-19T17:22:37.430Z,21.26
2023-05-19T17:26:49.833Z,21.16
2023-05-19T17:31:02.336Z,21.01
2023-05-19T17:35:14.976Z,20.96
2023-05-19T17:39:27.403Z,20.93
2023-05-19T17:43:41.326Z,20.85
2023-05-19T17:47:53.933Z,20.77
2023-05-19T17:52:07.176Z,20.62
2023-05-19T17:56:22.813Z,20.51
2023-05-19T18:00:35.689Z,20.41
2023-05-19T18:04:48.485Z,20.32
2023-05-19T18:09:02.903Z,20.18
2023-05-19T18:13:15.483Z,20.08
2023-05-19T18:17:27.987Z,20.07
2023-05-19T18:21:40.545Z,19.96
2023-05-19T18:25:53.804Z,19.85
2023-05-19T18:30:07.108Z,19.80
2023-05-19T18:34:19.540Z,19.72
2023-05-19T18:38:31.996Z,19.59
2023-05-19T18:42:44.667Z,19.59
2023-05-19T18:46:57.090Z,19.56
2023-05-19T18:51:10.087Z,19.43
2023-05-19T18:55:23.315Z,19.41
2023-05-19T18:59:35.932Z,19.40
2023-05-19T19:03:50.757Z,19.37
2023-05-19T19:08:05.830Z,19.20
2023-05-19T19:12:19.080Z,19.22
2023-05-19T19:16:32.871Z,19.19
2023-05-19T19:20:45.651Z,19.13
2023-05-19T19:24:58.004Z,19.05
2023-05-19T19:29:10.413Z,19.05
2023-05-19T19:33:22.838Z,18.97
2023-05-19T19:37:35.382Z,18.85
2023-05-19T19:41:47.861Z,18.71
2023-05-19T19:46:01.679Z,18.66
2023-05-19T19:50:14.487Z,18.77
2023-05-19T19:54:27.689Z,18.81
2023-05-19T19:58:43.202Z,18.55
2023-05-19T20:03:05.001Z,18.45
2023-05-19T20:07:21.240Z,18.51
2023-05-19T20:11:33.782Z,18.39
2023-05-19T20:15:47.500Z,18.25
2023-05-19T20:20:02.533Z,18.08
2023-05-19T20:24:14.871Z,18.10
2023-05-19T20:28:27.385Z,18.08
2023-05-19T20:32:40.401Z,17.97
2023-05-19T20:36:52.937Z,17.92
2023-05-19T20:41:05.484Z,18.01
2023-05-19T20:45:18.720Z,18.18
2023-05-19T20:49:31.295Z,18.14
2023-05-19T20:53:43.820Z,18.04
2023-05-19T20:57:56.362Z,17.98
2023-05-19T21:02:08.754Z,17.77
2023-05-19T21:06:21.330Z,17.64
2023-05-19T21:10:34.012Z,17.50
2023-05-19T21:14:46.536Z,17.75
2023-05-19T21:18:59.002Z,17.70
2023-05-19T21:23:11.531Z,17.42
2023-05-19T21:27:24.125Z,17.39
2023-05-19T21:31:37.084Z,17.28
2023-05-19T21:35:49.535Z,17.64
2023-05-19T21:40:02.062Z,17.50
2023-05-19T21:44:14.551Z,17.42
2023-05-19T21:48:26.876Z,17.35
2023-05-19T21:52:39.288Z,17.29
2023-05-19T21:56:51.788Z,17.19
2023-05-19T22:01:04.849Z,16.89
2023-05-19T22:05:17.627Z,16.96
2023-05-19T22:09:30.013Z,16.96
2023-05-19T22:13:42.408Z,16.85
2023-05-19T22:17:54.779Z,16.80
2023-05-19T22:22:13.847Z,16.99
2023-05-19T22:26:27.399Z,16.76
2023-05-19T22:30:41.049Z,16.84
2023-05-19T22:34:53.725Z,16.67
2023-05-19T22:39:06.347Z,16.58
2023-05-19T22:43:18.760Z,16.59
2023-05-19T22:47:31.269Z,16.57
2023-05-19T22:51:43.685Z,16.59
2023-05-19T22:55:56.418Z,16.47
2023-05-19T23:00:10.023Z,16.57
2023-05-19T23:04:22.883Z,16.70
2023-05-19T23:08:35.392Z,16.55
2023-05-19T23:12:47.839Z,16.34
2023-05-19T23:17:00.361Z,16.59
2023-05-19T23:21:12.967Z,16.50
2023-05-19T23:25:25.463Z,16.50
2023-05-19T23:29:38.006Z,16.34
2023-05-19T23:33:50.505Z,16.34
2023-05-19T23:38:04.068Z,16.37
2023-05-19T23:42:16.578Z,16.26
2023-05-19T23:46:29.059Z,16.31
2023-05-19T23:50:41.593Z,16.24
2023-05-19T23:54:53.940Z,16.56
2023-05-19T23:59:06.392Z,16.39
